sensor_id;sensor_type;location;lat;lon;timestamp;P1;P2;P0
21358;PMS7003;13506;50.852;20.632;2023-03-23T00:00:33;52.80;44.40;29.00
21358;PMS7003;13506;50.852;20.632;2023-03-23T00:03:14;49.20;38.60;24.80
21358;PMS7003;13506;50.852;20.632;2023-03-23T00:05:42;44.40;38.80;25.00
21358;PMS7003;13506;50.852;20.632;2023-03-23T00:08:16;42.40;38.40;21.60
21358;PMS7003;13506;50.852;20.632;2023-03-23T00:10:47;40.20;33.20;19.40
21358;PMS7003;13506;50.852;20.632;2023-03-23T00:13:19;39.80;35.40;22.40
21358;PMS7003;13506;50.852;20.632;2023-03-23T00:15:47;40.60;35.80;22.00
21358;PMS7003;13506;50.852;20.632;2023-03-23T00:18:17;39.60;35.20;22.20
21358;PMS7003;13506;50.852;20.632;2023-03-23T00:20:48;45.40;36.20;22.40
21358;PMS7003;13506;50.852;20.632;2023-03-23T00:23:16;34.00;31.40;18.40
21358;PMS7003;13506;50.852;20.632;2023-03-23T00:25:47;49.20;36.20;25.80
21358;PMS7003;13506;50.852;20.632;2023-03-23T00:28:16;42.60;37.60;25.00
21358;PMS7003;13506;50.852;20.632;2023-03-23T00:31:01;45.00;39.00;26.25
21358;PMS7003;13506;50.852;20.632;2023-03-23T00:33:34;53.00;44.75;27.50
21358;PMS7003;13506;50.852;20.632;2023-03-23T00:36:06;34.60;32.00;21.20
21358;PMS7003;13506;50.852;20.632;2023-03-23T00:38:36;40.40;38.20;23.80
21358;PMS7003;13506;50.852;20.632;2023-03-23T00:41:06;39.40;35.00;22.00
21358;PMS7003;13506;50.852;20.632;2023-03-23T00:43:36;42.25;36.25;21.75
21358;PMS7003;13506;50.852;20.632;2023-03-23T00:46:06;45.00;38.40;23.80
21358;PMS7003;13506;50.852;20.632;2023-03-23T00:48:35;35.80;33.20;20.40
21358;PMS7003;13506;50.852;20.632;2023-03-23T00:51:10;49.00;37.80;24.60
21358;PMS7003;13506;50.852;20.632;2023-03-23T00:53:39;42.40;38.20;23.20
21358;PMS7003;13506;50.852;20.632;2023-03-23T00:56:07;38.40;32.60;21.40
21358;PMS7003;13506;50.852;20.632;2023-03-23T00:58:36;52.40;42.00;24.40
21358;PMS7003;13506;50.852;20.632;2023-03-23T01:01:06;44.60;34.60;23.00
21358;PMS7003;13506;50.852;20.632;2023-03-23T01:03:34;39.80;37.20;22.60
21358;PMS7003;13506;50.852;20.632;2023-03-23T01:06:07;49.00;41.40;23.80
21358;PMS7003;13506;50.852;20.632;2023-03-23T01:08:41;38.80;36.60;22.40
21358;PMS7003;13506;50.852;20.632;2023-03-23T01:11:12;45.00;38.80;25.00
21358;PMS7003;13506;50.852;20.632;2023-03-23T01:13:42;56.00;40.60;21.00
21358;PMS7003;13506;50.852;20.632;2023-03-23T01:16:13;43.60;37.00;20.80
21358;PMS7003;13506;50.852;20.632;2023-03-23T01:18:41;37.20;34.20;19.80
21358;PMS7003;13506;50.852;20.632;2023-03-23T01:21:09;39.40;35.80;22.80
21358;PMS7003;13506;50.852;20.632;2023-03-23T01:23:39;39.60;33.20;20.00
21358;PMS7003;13506;50.852;20.632;2023-03-23T01:26:08;55.40;43.00;25.80
21358;PMS7003;13506;50.852;20.632;2023-03-23T01:28:39;40.00;37.00;24.80
21358;PMS7003;13506;50.852;20.632;2023-03-23T01:31:09;48.40;42.20;24.20
21358;PMS7003;13506;50.852;20.632;2023-03-23T01:33:41;41.80;38.20;23.00
21358;PMS7003;13506;50.852;20.632;2023-03-23T01:36:11;47.00;39.40;23.40
21358;PMS7003;13506;50.852;20.632;2023-03-23T01:38:43;42.40;36.80;21.60
21358;PMS7003;13506;50.852;20.632;2023-03-23T01:41:13;35.20;32.80;19.60
21358;PMS7003;13506;50.852;20.632;2023-03-23T01:44:00;33.60;29.20;19.60
21358;PMS7003;13506;50.852;20.632;2023-03-23T01:46:36;46.00;36.40;22.60
21358;PMS7003;13506;50.852;20.632;2023-03-23T01:49:06;50.00;43.75;28.00
21358;PMS7003;13506;50.852;20.632;2023-03-23T01:51:40;40.80;37.60;23.00
21358;PMS7003;13506;50.852;20.632;2023-03-23T01:54:14;44.80;37.40;24.00
21358;PMS7003;13506;50.852;20.632;2023-03-23T01:56:48;45.80;39.40;24.00
21358;PMS7003;13506;50.852;20.632;2023-03-23T01:59:20;37.00;34.50;22.00
21358;PMS7003;13506;50.852;20.632;2023-03-23T02:02:13;45.60;37.60;23.40
21358;PMS7003;13506;50.852;20.632;2023-03-23T02:04:42;48.40;41.20;24.00
21358;PMS7003;13506;50.852;20.632;2023-03-23T02:07:11;46.40;38.80;24.20
21358;PMS7003;13506;50.852;20.632;2023-03-23T02:09:42;47.60;38.60;23.40
21358;PMS7003;13506;50.852;20.632;2023-03-23T02:12:10;50.20;39.60;23.60
21358;PMS7003;13506;50.852;20.632;2023-03-23T02:14:39;43.00;38.20;23.40
21358;PMS7003;13506;50.852;20.632;2023-03-23T02:17:08;46.00;42.50;23.50
21358;PMS7003;13506;50.852;20.632;2023-03-23T02:19:55;45.20;40.20;24.80
21358;PMS7003;13506;50.852;20.632;2023-03-23T02:22:43;51.20;41.40;25.20
21358;PMS7003;13506;50.852;20.632;2023-03-23T02:25:33;47.60;39.00;25.40
21358;PMS7003;13506;50.852;20.632;2023-03-23T02:28:31;46.00;42.00;28.00
21358;PMS7003;13506;50.852;20.632;2023-03-23T02:31:22;48.60;40.40;26.20
21358;PMS7003;13506;50.852;20.632;2023-03-23T02:34:18;46.80;42.80;27.00
21358;PMS7003;13506;50.852;20.632;2023-03-23T02:36:52;56.60;46.20;30.20
21358;PMS7003;13506;50.852;20.632;2023-03-23T02:39:29;49.00;44.20;26.40
21358;PMS7003;13506;50.852;20.632;2023-03-23T02:42:02;51.00;40.60;23.00
21358;PMS7003;13506;50.852;20.632;2023-03-23T02:44:33;42.20;38.40;22.60
21358;PMS7003;13506;50.852;20.632;2023-03-23T02:47:06;44.80;42.00;26.20
21358;PMS7003;13506;50.852;20.632;2023-03-23T02:49:41;45.20;37.40;23.00
21358;PMS7003;13506;50.852;20.632;2023-03-23T02:52:14;50.80;40.80;24.60
21358;PMS7003;13506;50.852;20.632;2023-03-23T02:54:48;54.40;43.00;26.40
21358;PMS7003;13506;50.852;20.632;2023-03-23T02:57:18;47.80;42.60;25.40
21358;PMS7003;13506;50.852;20.632;2023-03-23T02:59:47;49.80;43.60;29.00
21358;PMS7003;13506;50.852;20.632;2023-03-23T03:02:16;49.00;43.00;27.25
21358;PMS7003;13506;50.852;20.632;2023-03-23T03:04:52;47.20;39.60;27.40
21358;PMS7003;13506;50.852;20.632;2023-03-23T03:07:29;45.20;41.40;26.40
21358;PMS7003;13506;50.852;20.632;2023-03-23T03:10:15;49.20;43.60;26.80
21358;PMS7003;13506;50.852;20.632;2023-03-23T03:12:52;48.40;38.20;25.00
21358;PMS7003;13506;50.852;20.632;2023-03-23T03:15:27;51.00;43.20;26.00
21358;PMS7003;13506;50.852;20.632;2023-03-23T03:18:04;37.20;33.00;21.60
21358;PMS7003;13506;50.852;20.632;2023-03-23T03:20:42;47.00;41.60;26.00
21358;PMS7003;13506;50.852;20.632;2023-03-23T03:23:15;45.60;37.40;23.00
21358;PMS7003;13506;50.852;20.632;2023-03-23T03:25:46;46.80;40.00;22.00
21358;PMS7003;13506;50.852;20.632;2023-03-23T03:28:24;43.20;37.40;21.60
21358;PMS7003;13506;50.852;20.632;2023-03-23T03:30:55;44.00;36.00;21.60
21358;PMS7003;13506;50.852;20.632;2023-03-23T03:33:27;41.00;35.00;25.00
21358;PMS7003;13506;50.852;20.632;2023-03-23T03:36:02;48.80;39.60;25.80
21358;PMS7003;13506;50.852;20.632;2023-03-23T03:38:40;42.00;39.20;22.60
21358;PMS7003;13506;50.852;20.632;2023-03-23T03:41:10;46.40;41.60;25.00
21358;PMS7003;13506;50.852;20.632;2023-03-23T03:43:38;47.25;43.25;26.25
21358;PMS7003;13506;50.852;20.632;2023-03-23T03:46:05;51.20;43.40;25.00
21358;PMS7003;13506;50.852;20.632;2023-03-23T03:48:34;41.80;37.80;24.80
21358;PMS7003;13506;50.852;20.632;2023-03-23T03:51:04;37.20;35.60;21.60
21358;PMS7003;13506;50.852;20.632;2023-03-23T03:53:35;43.80;40.40;24.80
21358;PMS7003;13506;50.852;20.632;2023-03-23T03:56:04;47.80;40.20;25.80
21358;PMS7003;13506;50.852;20.632;2023-03-23T03:58:40;33.40;32.00;21.00
21358;PMS7003;13506;50.852;20.632;2023-03-23T04:01:25;51.40;42.60;28.40
21358;PMS7003;13506;50.852;20.632;2023-03-23T04:03:54;43.60;36.80;24.80
21358;PMS7003;13506;50.852;20.632;2023-03-23T04:06:34;50.00;43.60;27.60
21358;PMS7003;13506;50.852;20.632;2023-03-23T04:09:03;48.20;41.00;27.00
21358;PMS7003;13506;50.852;20.632;2023-03-23T04:11:34;31.00;29.60;18.80
21358;PMS7003;13506;50.852;20.632;2023-03-23T04:14:22;36.60;30.40;19.00
21358;PMS7003;13506;50.852;20.632;2023-03-23T04:16:53;42.00;39.80;25.40
21358;PMS7003;13506;50.852;20.632;2023-03-23T04:19:23;45.80;41.80;24.40
21358;PMS7003;13506;50.852;20.632;2023-03-23T04:21:52;43.20;38.80;24.80
21358;PMS7003;13506;50.852;20.632;2023-03-23T04:24:21;34.40;33.00;21.20
21358;PMS7003;13506;50.852;20.632;2023-03-23T04:26:50;47.20;38.40;22.80
21358;PMS7003;13506;50.852;20.632;2023-03-23T04:29:25;41.50;37.00;22.75
21358;PMS7003;13506;50.852;20.632;2023-03-23T04:32:32;46.00;38.20;24.40
21358;PMS7003;13506;50.852;20.632;2023-03-23T04:35:01;42.20;35.60;22.60
21358;PMS7003;13506;50.852;20.632;2023-03-23T04:37:40;44.00;39.60;23.00
21358;PMS7003;13506;50.852;20.632;2023-03-23T04:40:10;43.00;37.00;23.80
21358;PMS7003;13506;50.852;20.632;2023-03-23T04:42:46;40.60;33.80;21.00
21358;PMS7003;13506;50.852;20.632;2023-03-23T04:45:31;40.80;35.00;23.80
21358;PMS7003;13506;50.852;20.632;2023-03-23T04:48:03;42.20;35.40;22.80
21358;PMS7003;13506;50.852;20.632;2023-03-23T04:50:40;45.80;38.80;22.20
21358;PMS7003;13506;50.852;20.632;2023-03-23T04:53:18;42.40;35.80;22.40
21358;PMS7003;13506;50.852;20.632;2023-03-23T04:55:47;42.80;36.60;22.80
21358;PMS7003;13506;50.852;20.632;2023-03-23T04:58:18;36.20;31.40;18.80
21358;PMS7003;13506;50.852;20.632;2023-03-23T05:01:22;43.00;34.40;21.80
21358;PMS7003;13506;50.852;20.632;2023-03-23T05:04:10;52.20;40.00;24.40
21358;PMS7003;13506;50.852;20.632;2023-03-23T05:06:48;46.00;37.60;23.40
21358;PMS7003;13506;50.852;20.632;2023-03-23T05:09:23;54.50;45.25;28.75
21358;PMS7003;13506;50.852;20.632;2023-03-23T05:11:51;34.60;33.40;21.00
21358;PMS7003;13506;50.852;20.632;2023-03-23T05:14:20;45.00;36.25;23.00
21358;PMS7003;13506;50.852;20.632;2023-03-23T05:17:00;38.75;36.00;21.50
21358;PMS7003;13506;50.852;20.632;2023-03-23T05:19:28;42.80;39.20;25.40
21358;PMS7003;13506;50.852;20.632;2023-03-23T05:22:01;43.60;38.20;25.40
21358;PMS7003;13506;50.852;20.632;2023-03-23T05:24:41;44.60;36.80;24.00
21358;PMS7003;13506;50.852;20.632;2023-03-23T05:27:10;42.40;39.60;23.40
21358;PMS7003;13506;50.852;20.632;2023-03-23T05:29:43;51.00;43.00;27.00
21358;PMS7003;13506;50.852;20.632;2023-03-23T05:32:14;55.80;45.60;27.60
21358;PMS7003;13506;50.852;20.632;2023-03-23T05:34:42;52.40;43.60;28.20
21358;PMS7003;13506;50.852;20.632;2023-03-23T05:37:10;38.40;37.80;24.00
21358;PMS7003;13506;50.852;20.632;2023-03-23T05:39:48;36.00;31.80;19.60
21358;PMS7003;13506;50.852;20.632;2023-03-23T05:42:57;36.20;32.80;21.00
21358;PMS7003;13506;50.852;20.632;2023-03-23T05:45:51;34.60;32.40;21.20
21358;PMS7003;13506;50.852;20.632;2023-03-23T05:48:20;34.00;27.80;18.80
21358;PMS7003;13506;50.852;20.632;2023-03-23T05:50:49;37.00;32.80;18.40
21358;PMS7003;13506;50.852;20.632;2023-03-23T05:53:20;33.00;29.60;17.80
21358;PMS7003;13506;50.852;20.632;2023-03-23T05:55:50;33.00;28.40;17.60
21358;PMS7003;13506;50.852;20.632;2023-03-23T05:58:42;37.40;32.20;19.00
21358;PMS7003;13506;50.852;20.632;2023-03-23T06:01:10;30.60;28.40;19.00
21358;PMS7003;13506;50.852;20.632;2023-03-23T06:03:41;43.20;32.60;18.40
21358;PMS7003;13506;50.852;20.632;2023-03-23T06:06:16;32.60;30.60;17.40
21358;PMS7003;13506;50.852;20.632;2023-03-23T06:08:52;30.80;29.80;18.20
21358;PMS7003;13506;50.852;20.632;2023-03-23T06:11:35;34.60;31.20;19.60
21358;PMS7003;13506;50.852;20.632;2023-03-23T06:14:22;28.80;21.40;12.00
21358;PMS7003;13506;50.852;20.632;2023-03-23T06:16:50;27.80;25.40;16.00
21358;PMS7003;13506;50.852;20.632;2023-03-23T06:19:18;25.60;25.60;15.00
21358;PMS7003;13506;50.852;20.632;2023-03-23T06:21:55;23.60;18.40;11.60
21358;PMS7003;13506;50.852;20.632;2023-03-23T06:24:36;23.60;19.40;11.60
21358;PMS7003;13506;50.852;20.632;2023-03-23T06:27:05;26.80;21.40;12.40
21358;PMS7003;13506;50.852;20.632;2023-03-23T06:29:34;22.60;21.80;12.00
21358;PMS7003;13506;50.852;20.632;2023-03-23T06:32:03;25.00;20.80;12.20
21358;PMS7003;13506;50.852;20.632;2023-03-23T06:34:33;23.80;21.00;13.00
21358;PMS7003;13506;50.852;20.632;2023-03-23T06:37:40;17.60;17.00;9.40
21358;PMS7003;13506;50.852;20.632;2023-03-23T06:40:15;23.80;19.60;12.20
21358;PMS7003;13506;50.852;20.632;2023-03-23T06:42:52;21.80;19.20;12.80
21358;PMS7003;13506;50.852;20.632;2023-03-23T06:45:23;18.40;14.20;8.60
21358;PMS7003;13506;50.852;20.632;2023-03-23T06:48:04;26.20;23.20;14.80
21358;PMS7003;13506;50.852;20.632;2023-03-23T06:50:33;25.20;22.40;13.00
21358;PMS7003;13506;50.852;20.632;2023-03-23T06:53:02;23.00;23.00;14.40
21358;PMS7003;13506;50.852;20.632;2023-03-23T06:55:30;24.20;21.00;13.60
21358;PMS7003;13506;50.852;20.632;2023-03-23T06:58:00;26.60;20.80;12.60
21358;PMS7003;13506;50.852;20.632;2023-03-23T07:00:28;22.20;20.60;13.20
21358;PMS7003;13506;50.852;20.632;2023-03-23T07:02:56;25.80;21.40;13.00
21358;PMS7003;13506;50.852;20.632;2023-03-23T07:05:25;26.40;22.60;13.40
21358;PMS7003;13506;50.852;20.632;2023-03-23T07:07:54;23.40;21.00;12.60
21358;PMS7003;13506;50.852;20.632;2023-03-23T07:10:30;25.20;20.40;11.60
21358;PMS7003;13506;50.852;20.632;2023-03-23T07:13:01;23.80;19.40;12.60
21358;PMS7003;13506;50.852;20.632;2023-03-23T07:15:39;25.60;21.60;12.80
21358;PMS7003;13506;50.852;20.632;2023-03-23T07:18:07;30.40;24.40;15.00
21358;PMS7003;13506;50.852;20.632;2023-03-23T07:20:42;28.80;24.40;14.80
21358;PMS7003;13506;50.852;20.632;2023-03-23T07:23:10;24.80;22.40;12.80
21358;PMS7003;13506;50.852;20.632;2023-03-23T07:25:42;23.80;21.40;12.00
21358;PMS7003;13506;50.852;20.632;2023-03-23T07:28:17;31.40;26.60;16.80
21358;PMS7003;13506;50.852;20.632;2023-03-23T07:30:46;22.40;22.00;14.60
21358;PMS7003;13506;50.852;20.632;2023-03-23T07:33:15;28.00;24.60;15.60
21358;PMS7003;13506;50.852;20.632;2023-03-23T07:35:43;32.20;26.80;15.60
21358;PMS7003;13506;50.852;20.632;2023-03-23T07:38:14;28.00;25.00;14.60
21358;PMS7003;13506;50.852;20.632;2023-03-23T07:40:46;21.20;20.00;14.00
21358;PMS7003;13506;50.852;20.632;2023-03-23T07:43:18;30.40;24.00;15.20
21358;PMS7003;13506;50.852;20.632;2023-03-23T07:45:49;27.20;24.00;14.60
21358;PMS7003;13506;50.852;20.632;2023-03-23T07:48:18;25.60;22.80;14.20
21358;PMS7003;13506;50.852;20.632;2023-03-23T07:50:46;32.40;27.80;18.20
21358;PMS7003;13506;50.852;20.632;2023-03-23T07:53:16;33.60;25.00;15.20
21358;PMS7003;13506;50.852;20.632;2023-03-23T07:55:53;25.40;21.60;14.80
21358;PMS7003;13506;50.852;20.632;2023-03-23T07:58:49;26.60;25.60;15.40
21358;PMS7003;13506;50.852;20.632;2023-03-23T08:01:18;31.00;25.00;15.60
21358;PMS7003;13506;50.852;20.632;2023-03-23T08:04:07;23.20;20.40;13.20
21358;PMS7003;13506;50.852;20.632;2023-03-23T08:06:58;29.60;26.60;15.80
21358;PMS7003;13506;50.852;20.632;2023-03-23T08:09:36;24.00;21.20;14.00
21358;PMS7003;13506;50.852;20.632;2023-03-23T08:12:16;26.20;25.00;14.60
21358;PMS7003;13506;50.852;20.632;2023-03-23T08:15:21;22.80;21.40;13.80
21358;PMS7003;13506;50.852;20.632;2023-03-23T08:18:04;20.80;18.40;12.40
21358;PMS7003;13506;50.852;20.632;2023-03-23T08:20:42;24.20;23.60;13.00
21358;PMS7003;13506;50.852;20.632;2023-03-23T08:23:28;27.40;23.80;13.60
21358;PMS7003;13506;50.852;20.632;2023-03-23T08:26:11;23.80;22.00;13.00
21358;PMS7003;13506;50.852;20.632;2023-03-23T08:29:00;21.60;20.40;13.80
21358;PMS7003;13506;50.852;20.632;2023-03-23T08:31:49;20.40;18.80;12.00
21358;PMS7003;13506;50.852;20.632;2023-03-23T08:34:35;24.60;20.80;12.00
21358;PMS7003;13506;50.852;20.632;2023-03-23T08:37:27;23.60;19.80;12.60
21358;PMS7003;13506;50.852;20.632;2023-03-23T08:39:58;18.40;18.00;11.20
21358;PMS7003;13506;50.852;20.632;2023-03-23T08:42:38;21.40;20.60;12.60
21358;PMS7003;13506;50.852;20.632;2023-03-23T08:45:26;18.80;17.40;9.60
21358;PMS7003;13506;50.852;20.632;2023-03-23T08:48:14;17.80;16.00;9.00
21358;PMS7003;13506;50.852;20.632;2023-03-23T08:51:20;22.20;19.60;12.00
21358;PMS7003;13506;50.852;20.632;2023-03-23T08:54:17;18.40;16.80;9.00
21358;PMS7003;13506;50.852;20.632;2023-03-23T08:56:45;21.20;20.60;10.60
21358;PMS7003;13506;50.852;20.632;2023-03-23T08:59:32;20.60;19.40;9.60
21358;PMS7003;13506;50.852;20.632;2023-03-23T09:02:21;17.20;15.20;9.40
21358;PMS7003;13506;50.852;20.632;2023-03-23T09:04:55;21.60;20.00;9.80
21358;PMS7003;13506;50.852;20.632;2023-03-23T09:07:34;17.80;17.80;10.00
21358;PMS7003;13506;50.852;20.632;2023-03-23T09:10:02;16.20;15.20;10.20
21358;PMS7003;13506;50.852;20.632;2023-03-23T09:12:31;21.40;19.40;13.00
21358;PMS7003;13506;50.852;20.632;2023-03-23T09:14:59;21.20;18.00;10.60
21358;PMS7003;13506;50.852;20.632;2023-03-23T09:17:28;17.40;15.40;8.60
21358;PMS7003;13506;50.852;20.632;2023-03-23T09:19:58;18.40;16.00;8.80
21358;PMS7003;13506;50.852;20.632;2023-03-23T09:22:26;18.20;17.20;9.00
21358;PMS7003;13506;50.852;20.632;2023-03-23T09:24:54;16.20;13.80;8.20
21358;PMS7003;13506;50.852;20.632;2023-03-23T09:27:22;16.80;16.80;9.40
21358;PMS7003;13506;50.852;20.632;2023-03-23T09:29:51;17.60;17.00;9.60
21358;PMS7003;13506;50.852;20.632;2023-03-23T09:32:20;14.80;13.20;8.00
21358;PMS7003;13506;50.852;20.632;2023-03-23T09:34:49;15.80;14.20;8.80
21358;PMS7003;13506;50.852;20.632;2023-03-23T09:37:18;14.60;12.60;8.40
21358;PMS7003;13506;50.852;20.632;2023-03-23T09:39:46;13.00;12.00;8.00
21358;PMS7003;13506;50.852;20.632;2023-03-23T09:42:18;10.20;10.00;6.80
21358;PMS7003;13506;50.852;20.632;2023-03-23T09:45:14;13.60;12.40;7.40
21358;PMS7003;13506;50.852;20.632;2023-03-23T09:47:55;12.00;11.00;6.00
21358;PMS7003;13506;50.852;20.632;2023-03-23T09:50:34;13.80;12.60;7.00
21358;PMS7003;13506;50.852;20.632;2023-03-23T09:53:08;13.00;11.80;7.00
21358;PMS7003;13506;50.852;20.632;2023-03-23T09:55:43;14.00;12.60;7.00
21358;PMS7003;13506;50.852;20.632;2023-03-23T09:58:16;11.60;11.60;7.00
21358;PMS7003;13506;50.852;20.632;2023-03-23T10:00:51;15.60;14.60;7.00
21358;PMS7003;13506;50.852;20.632;2023-03-23T10:03:25;12.00;12.00;7.00
21358;PMS7003;13506;50.852;20.632;2023-03-23T10:05:57;13.80;13.80;7.00
21358;PMS7003;13506;50.852;20.632;2023-03-23T10:08:27;14.80;14.20;7.60
21358;PMS7003;13506;50.852;20.632;2023-03-23T10:11:01;12.80;12.80;7.00
21358;PMS7003;13506;50.852;20.632;2023-03-23T10:13:34;10.80;9.80;6.00
21358;PMS7003;13506;50.852;20.632;2023-03-23T10:16:30;15.20;13.80;8.00
21358;PMS7003;13506;50.852;20.632;2023-03-23T10:19:03;11.20;10.40;6.40
21358;PMS7003;13506;50.852;20.632;2023-03-23T10:21:39;14.60;14.00;8.80
21358;PMS7003;13506;50.852;20.632;2023-03-23T10:24:11;15.80;14.00;7.00
21358;PMS7003;13506;50.852;20.632;2023-03-23T10:29:33;11.60;11.20;6.60
21358;PMS7003;13506;50.852;20.632;2023-03-23T10:32:08;14.20;12.00;7.00
21358;PMS7003;13506;50.852;20.632;2023-03-23T10:34:40;15.60;9.80;5.80
21358;PMS7003;13506;50.852;20.632;2023-03-23T10:37:17;12.00;10.60;6.00
21358;PMS7003;13506;50.852;20.632;2023-03-23T10:39:51;9.60;8.40;5.20
21358;PMS7003;13506;50.852;20.632;2023-03-23T10:42:22;10.40;10.40;5.40
21358;PMS7003;13506;50.852;20.632;2023-03-23T10:44:51;14.20;12.80;7.00
21358;PMS7003;13506;50.852;20.632;2023-03-23T10:47:20;12.00;10.00;6.40
21358;PMS7003;13506;50.852;20.632;2023-03-23T10:49:50;11.80;10.00;7.60
21358;PMS7003;13506;50.852;20.632;2023-03-23T10:52:27;10.80;10.40;5.80
21358;PMS7003;13506;50.852;20.632;2023-03-23T10:55:03;9.80;9.80;5.00
21358;PMS7003;13506;50.852;20.632;2023-03-23T10:57:35;13.20;12.40;6.00
21358;PMS7003;13506;50.852;20.632;2023-03-23T11:00:06;15.00;10.40;6.00
21358;PMS7003;13506;50.852;20.632;2023-03-23T11:02:45;11.80;11.80;6.00
21358;PMS7003;13506;50.852;20.632;2023-03-23T11:05:25;12.00;11.00;6.20
21358;PMS7003;13506;50.852;20.632;2023-03-23T11:07:59;12.20;9.80;5.20
21358;PMS7003;13506;50.852;20.632;2023-03-23T11:10:34;13.40;9.20;6.00
21358;PMS7003;13506;50.852;20.632;2023-03-23T11:13:04;9.20;8.00;4.40
21358;PMS7003;13506;50.852;20.632;2023-03-23T11:15:39;9.80;9.80;5.60
21358;PMS7003;13506;50.852;20.632;2023-03-23T11:18:11;9.40;9.20;5.40
21358;PMS7003;13506;50.852;20.632;2023-03-23T11:20:46;8.40;8.40;5.00
21358;PMS7003;13506;50.852;20.632;2023-03-23T11:23:19;11.80;9.20;6.00
21358;PMS7003;13506;50.852;20.632;2023-03-23T11:25:54;11.00;9.20;5.00
21358;PMS7003;13506;50.852;20.632;2023-03-23T11:28:29;8.40;7.60;4.00
21358;PMS7003;13506;50.852;20.632;2023-03-23T11:30:59;9.40;9.40;5.00
21358;PMS7003;13506;50.852;20.632;2023-03-23T11:33:30;9.40;9.20;4.60
21358;PMS7003;13506;50.852;20.632;2023-03-23T11:36:06;12.00;9.60;6.00
21358;PMS7003;13506;50.852;20.632;2023-03-23T11:38:35;8.00;8.00;4.40
21358;PMS7003;13506;50.852;20.632;2023-03-23T11:41:10;10.20;8.00;5.00
21358;PMS7003;13506;50.852;20.632;2023-03-23T11:43:39;9.00;9.00;5.60
21358;PMS7003;13506;50.852;20.632;2023-03-23T11:46:13;11.60;10.20;5.40
21358;PMS7003;13506;50.852;20.632;2023-03-23T11:48:54;10.40;7.80;4.60
21358;PMS7003;13506;50.852;20.632;2023-03-23T11:51:29;9.80;9.20;5.00
21358;PMS7003;13506;50.852;20.632;2023-03-23T11:54:02;9.00;9.00;5.00
21358;PMS7003;13506;50.852;20.632;2023-03-23T11:56:38;11.40;10.40;5.00
21358;PMS7003;13506;50.852;20.632;2023-03-23T11:59:10;7.80;7.80;4.00
21358;PMS7003;13506;50.852;20.632;2023-03-23T12:01:46;9.00;8.40;4.60
21358;PMS7003;13506;50.852;20.632;2023-03-23T12:04:28;11.20;8.40;5.20
21358;PMS7003;13506;50.852;20.632;2023-03-23T12:07:09;9.00;6.60;4.00
21358;PMS7003;13506;50.852;20.632;2023-03-23T12:09:58;12.00;10.60;5.60
21358;PMS7003;13506;50.852;20.632;2023-03-23T12:12:43;9.60;8.60;4.40
21358;PMS7003;13506;50.852;20.632;2023-03-23T12:15:22;8.80;8.00;4.00
21358;PMS7003;13506;50.852;20.632;2023-03-23T12:17:59;12.40;10.20;5.00
21358;PMS7003;13506;50.852;20.632;2023-03-23T12:20:37;7.20;6.60;4.00
21358;PMS7003;13506;50.852;20.632;2023-03-23T12:23:20;8.40;8.40;4.20
21358;PMS7003;13506;50.852;20.632;2023-03-23T12:25:58;7.80;7.80;4.40
21358;PMS7003;13506;50.852;20.632;2023-03-23T12:28:50;8.80;7.00;3.00
21358;PMS7003;13506;50.852;20.632;2023-03-23T12:31:31;6.80;6.60;4.80
21358;PMS7003;13506;50.852;20.632;2023-03-23T12:34:10;9.00;6.80;4.00
21358;PMS7003;13506;50.852;20.632;2023-03-23T12:36:59;9.80;8.80;4.20
21358;PMS7003;13506;50.852;20.632;2023-03-23T12:39:47;9.20;7.00;5.40
21358;PMS7003;13506;50.852;20.632;2023-03-23T12:42:37;10.20;9.80;5.00
21358;PMS7003;13506;50.852;20.632;2023-03-23T12:45:17;10.20;8.40;4.60
21358;PMS7003;13506;50.852;20.632;2023-03-23T12:47:56;10.60;9.20;4.40
21358;PMS7003;13506;50.852;20.632;2023-03-23T12:50:30;9.60;6.40;3.00
21358;PMS7003;13506;50.852;20.632;2023-03-23T12:53:04;7.80;6.20;3.20
21358;PMS7003;13506;50.852;20.632;2023-03-23T12:55:39;5.60;5.60;3.00
21358;PMS7003;13506;50.852;20.632;2023-03-23T12:58:12;6.40;6.00;3.00
21358;PMS7003;13506;50.852;20.632;2023-03-23T13:00:54;6.00;5.00;2.20
21358;PMS7003;13506;50.852;20.632;2023-03-23T13:03:28;4.00;4.00;2.00
21358;PMS7003;13506;50.852;20.632;2023-03-23T13:06:04;7.00;6.00;3.00
21358;PMS7003;13506;50.852;20.632;2023-03-23T13:08:39;5.40;4.80;2.80
21358;PMS7003;13506;50.852;20.632;2023-03-23T13:11:16;5.40;5.40;3.00
21358;PMS7003;13506;50.852;20.632;2023-03-23T13:13:49;5.60;5.60;3.00
21358;PMS7003;13506;50.852;20.632;2023-03-23T13:16:27;6.00;4.00;2.00
21358;PMS7003;13506;50.852;20.632;2023-03-23T13:19:06;6.00;5.80;2.40
21358;PMS7003;13506;50.852;20.632;2023-03-23T13:21:41;6.00;5.60;3.20
21358;PMS7003;13506;50.852;20.632;2023-03-23T13:24:15;7.80;6.80;3.00
21358;PMS7003;13506;50.852;20.632;2023-03-23T13:26:48;8.60;5.80;3.00
21358;PMS7003;13506;50.852;20.632;2023-03-23T13:29:18;6.80;6.00;3.00
21358;PMS7003;13506;50.852;20.632;2023-03-23T13:31:51;5.40;5.40;3.00
21358;PMS7003;13506;50.852;20.632;2023-03-23T13:34:20;8.60;5.20;2.00
21358;PMS7003;13506;50.852;20.632;2023-03-23T13:36:53;7.60;7.60;3.60
21358;PMS7003;13506;50.852;20.632;2023-03-23T13:39:23;5.60;5.60;2.00
21358;PMS7003;13506;50.852;20.632;2023-03-23T13:41:59;4.00;4.00;2.00
21358;PMS7003;13506;50.852;20.632;2023-03-23T13:44:41;8.00;5.20;3.00
21358;PMS7003;13506;50.852;20.632;2023-03-23T13:47:28;5.40;5.00;2.00
21358;PMS7003;13506;50.852;20.632;2023-03-23T13:50:10;5.00;3.80;1.60
21358;PMS7003;13506;50.852;20.632;2023-03-23T13:52:46;3.80;3.80;1.00
21358;PMS7003;13506;50.852;20.632;2023-03-23T13:58:11;3.50;3.50;1.00
21358;PMS7003;13506;50.852;20.632;2023-03-23T14:00:50;4.60;4.40;2.00
21358;PMS7003;13506;50.852;20.632;2023-03-23T14:03:44;6.20;3.40;1.00
21358;PMS7003;13506;50.852;20.632;2023-03-23T14:06:17;4.00;4.00;2.00
21358;PMS7003;13506;50.852;20.632;2023-03-23T14:09:15;4.00;4.00;1.40
21358;PMS7003;13506;50.852;20.632;2023-03-23T14:11:46;5.20;4.20;2.40
21358;PMS7003;13506;50.852;20.632;2023-03-23T14:14:20;4.40;4.40;2.20
21358;PMS7003;13506;50.852;20.632;2023-03-23T14:16:53;4.40;4.00;2.00
21358;PMS7003;13506;50.852;20.632;2023-03-23T14:19:37;4.00;4.00;2.00
21358;PMS7003;13506;50.852;20.632;2023-03-23T14:22:16;4.80;4.00;2.00
21358;PMS7003;13506;50.852;20.632;2023-03-23T14:24:46;4.80;4.00;1.80
21358;PMS7003;13506;50.852;20.632;2023-03-23T14:27:14;5.00;5.00;3.00
21358;PMS7003;13506;50.852;20.632;2023-03-23T14:29:44;6.80;5.00;2.60
21358;PMS7003;13506;50.852;20.632;2023-03-23T14:32:13;6.00;5.60;2.20
21358;PMS7003;13506;50.852;20.632;2023-03-23T14:34:46;6.00;5.00;2.00